If you wish to contribute or participate in the discussions about articles you are invited to join SKYbrary as a registered user

 Actions

Kobe Airport

From SKYbrary Wiki

RJBE
Airport
ICAO: RJBE – IATA: UKB
Summary
Name Kobe Airport
Region Asia and Pacific
Territory Japan JP.gif
Location Chuo-ku, Kansai
Serving Kobe
Elevation 6.706 m <br />22 ft6.706 m <br />
Coordinates 34° 38' 1.75" N, 135° 13' 24.51" E
Runways
Designator Length Width Surface ROPS
9/27 2500 m8,202.1 ft <br /> 61 m200.131 ft <br /> ASP /


METAR
Observation RJBE 230700Z 29013KT 9999 VCSH FEW030 SCT/// 28/17 Q1008
Station KOBE
Date/Time 23 June 2021 07:00:00
Wind direction 290°
Wind speed 13 kts
Lowest cloud amount few clouds
Temperature 28°C
Dew point 17°C
Humidity 51%
QNH 1008 hPa
Weather condition in vicinity: showers

Kobe Airport is an airport on an artificial island just off the coast of Kobe, 8 km4.32 nm <br />8,000 m <br />26,246.719 ft <br /> south of Sannomiya Station, Japan. It primarily handles domestic flights, but can also accommodate international charter flights.

Climatology

Humid subtropical climate (Köppen climate classification Cfa).

Maps

Terrain

Loading map...

Airport Layout

Loading map...


Accidents & Serious Incidents at or in vicinity of RJBE

None on SKYbrary